»·PEaware :: N379KA KSEE-KSNA

N379KA :: KSEE-KSNA

FLIGHT INFORMATION

Flight Status: Arrived
Operator: Privately registered:
United States
More flights under this callsign
Pilot: Jason D. (24728)
Aircraft: BEECH AIRCRAFT SUPER KING AIR 350
(B350)
More flights by this aircraft type
Origin: KSEE Gillespie
United States
Destination: KSNA John Wayne-Orange Co
United States
More flights between these airports :: More routes between these airports
Route: CWARD2 SLI
File this flight plan on PilotEdge
Remarks: TEC route SANP4R
Altitude:
(Current/Filed)
8,000ft
Speed:
(Current/Filed)
240kts
Departed: 09-Sep-22 05:15 PM
Arrived: 09-Sep-22 05:46 PM
Distance/Time
Traveled:
68nm/0:31
Distance/Time
To Go:
Arrived

Flight Plot

Page will automatically refresh every two minutes.

Flight plan parsing failed; only flown route is shown


Map Options




Map Legend


Flown Route
Filed Route
Departure Airport
Arrival Airport
Navaid (VOR, NDB)
Fix

Horizontal Profiles

Position Reports

Time Latitude Longitude Heading Altitude Ground
Speed
09-Sep-22 16:46 32.824732 -116.970508 0 379ft 0kts
09-Sep-22 16:47 32.824732 -116.970508 0 379ft 0kts
09-Sep-22 16:48 32.824732 -116.970508 0 379ft 0kts
09-Sep-22 16:49 32.824732 -116.970508 0 379ft 0kts
09-Sep-22 16:50 32.824732 -116.970508 0 379ft 0kts
09-Sep-22 16:51 32.824732 -116.970508 0 379ft 0kts
09-Sep-22 16:52 32.824732 -116.970508 0 379ft 0kts
09-Sep-22 16:54 32.824732 -116.970508 0 379ft 0kts
09-Sep-22 16:55 32.824732 -116.970508 0 379ft 0kts
09-Sep-22 16:55 32.824732 -116.970508 0 379ft 0kts
09-Sep-22 16:56 32.824732 -116.970508 0 379ft 0kts
09-Sep-22 16:58 32.824732 -116.970508 0 379ft 0kts
09-Sep-22 16:59 32.824732 -116.970508 0 379ft 0kts
09-Sep-22 16:59 32.824732 -116.970508 0 379ft 0kts
09-Sep-22 17:00 32.824732 -116.970508 0 379ft 0kts
09-Sep-22 17:01 32.824732 -116.970508 0 379ft 0kts
09-Sep-22 17:02 32.824732 -116.970508 0 379ft 0kts
09-Sep-22 17:04 32.824732 -116.970508 0 379ft 0kts
09-Sep-22 17:04 32.824732 -116.970508 0 379ft 0kts
09-Sep-22 17:05 32.824732 -116.970508 0 379ft 0kts
09-Sep-22 17:06 32.824732 -116.970508 0 379ft 0kts
09-Sep-22 17:07 32.824732 -116.970508 0 378ft 0kts
09-Sep-22 17:08 32.824732 -116.970508 0 378ft 0kts
09-Sep-22 17:09 32.824732 -116.970508 0 360ft 0kts
09-Sep-22 17:10 32.825524 -116.970604 15 376ft 9kts
09-Sep-22 17:11 32.825096 -116.966748 102 387ft 13kts
09-Sep-22 17:12 32.825916 -116.964399 343 391ft 0kts
09-Sep-22 17:13 32.826299 -116.964497 350 392ft 12kts
09-Sep-22 17:14 32.831910 -116.988256 302 726ft 125kts
09-Sep-22 17:15 32.862128 -117.012771 330 2304ft 149kts
09-Sep-22 17:16 32.901794 -117.041830 305 3119ft 189kts
09-Sep-22 17:17 32.909207 -117.102139 284 4373ft 188kts
09-Sep-22 17:18 32.927539 -117.167888 283 4525ft 233kts
09-Sep-22 17:19 32.945184 -117.241091 286 5447ft 219kts
09-Sep-22 17:20 32.962406 -117.311258 285 6543ft 223kts
09-Sep-22 17:21 32.979866 -117.383060 285 7600ft 226kts
09-Sep-22 17:22 32.998661 -117.460459 286 8100ft 264kts
09-Sep-22 17:23 33.019842 -117.548155 286 8059ft 283kts
09-Sep-22 17:24 33.041712 -117.638771 286 8020ft 284kts
09-Sep-22 17:25 33.068006 -117.726604 310 8112ft 281kts
09-Sep-22 17:26 33.124239 -117.791013 322 8139ft 282kts
09-Sep-22 17:27 33.184575 -117.848876 336 8058ft 272kts
09-Sep-22 17:28 33.254923 -117.877032 356 8091ft 266kts
09-Sep-22 17:29 33.327280 -117.895140 354 8031ft 265kts
09-Sep-22 17:30 33.399556 -117.914693 347 7623ft 274kts
09-Sep-22 17:31 33.471724 -117.941089 350 6651ft 266kts
09-Sep-22 17:32 33.540606 -117.966149 350 6058ft 249kts
09-Sep-22 17:33 33.605866 -117.989910 350 5998ft 244kts
09-Sep-22 17:34 33.671490 -118.006002 15 5715ft 238kts
09-Sep-22 17:35 33.736671 -117.986235 21 4550ft 244kts
09-Sep-22 17:36 33.788885 -117.947889 41 3978ft 192kts
09-Sep-22 17:37 33.827696 -117.911097 41 3347ft 182kts
09-Sep-22 17:38 33.866361 -117.873289 41 3013ft 175kts
09-Sep-22 17:39 33.873713 -117.820053 90 2998ft 171kts
09-Sep-22 17:40 33.855840 -117.775448 188 3041ft 187kts
09-Sep-22 17:41 33.804139 -117.785513 211 3001ft 193kts
09-Sep-22 17:42 33.755696 -117.818752 204 2403ft 201kts
09-Sep-22 17:43 33.713587 -117.844518 207 982ft 139kts
09-Sep-22 17:44 33.683720 -117.863752 208 100ft 101kts
09-Sep-22 17:45 33.675980 -117.869839 296 46ft 0kts
09-Sep-22 17:46 33.675984 -117.869851 292 46ft 0kts
09-Sep-22 17:47 33.673945 -117.871454 208 47ft 12kts

Navigation Log

Ident Type
Flight plan parsing failed, navigation log unavailable